createdAt,value
2022-10-05T00:02:41.339Z,100227.28
2022-10-05T00:05:45.439Z,100225.16
2022-10-05T00:08:47.631Z,100231.88
2022-10-05T00:11:50.929Z,100224.88
2022-10-05T00:14:57.825Z,100222.97
2022-10-05T00:18:02.963Z,100218.16
2022-10-05T00:21:25.553Z,100222.16
2022-10-05T00:24:27.714Z,100215.50
2022-10-05T00:27:36.672Z,100219.66
2022-10-05T00:30:38.876Z,100218.00
2022-10-05T00:33:41.022Z,100207.38
2022-10-05T00:36:43.937Z,100214.38
2022-10-05T00:39:46.407Z,100209.16
2022-10-05T00:42:54.334Z,100220.53
2022-10-05T00:46:07.803Z,100229.22
2022-10-05T00:50:05.663Z,100219.41
2022-10-05T00:53:29.733Z,100218.00
2022-10-05T00:56:41.931Z,100216.94
2022-10-05T01:00:07.085Z,100218.31
2022-10-05T01:03:23.671Z,100210.91
2022-10-05T01:06:33.437Z,100217.84
2022-10-05T01:09:51.151Z,100214.97
2022-10-05T01:13:11.592Z,100223.81
2022-10-05T01:16:29.718Z,100231.78
2022-10-05T01:19:49.961Z,100236.31
2022-10-05T01:23:08.585Z,100238.62
2022-10-05T01:26:55.587Z,100240.50
2022-10-05T01:30:07.130Z,100231.28
2022-10-05T01:33:12.391Z,100235.28
2022-10-05T01:36:36.823Z,100236.25
2022-10-05T01:39:58.498Z,100236.06
2022-10-05T01:43:15.870Z,100239.00
2022-10-05T01:46:25.353Z,100247.28
2022-10-05T01:49:33.729Z,100240.28
2022-10-05T01:52:50.842Z,100241.44
2022-10-05T01:56:28.979Z,100246.87
2022-10-05T02:00:04.724Z,100254.47
2022-10-05T02:03:17.105Z,100247.00
2022-10-05T02:06:28.356Z,100252.34
2022-10-05T02:09:34.437Z,100249.56
2022-10-05T02:12:38.051Z,100247.09
2022-10-05T02:15:58.324Z,100255.41
2022-10-05T02:19:11.943Z,100256.59
2022-10-05T02:22:24.569Z,100256.59
2022-10-05T02:25:30.547Z,100257.19
2022-10-05T02:28:52.675Z,100257.72
2022-10-05T02:31:57.866Z,100256.81
2022-10-05T02:35:06.589Z,100258.66
2022-10-05T02:38:24.454Z,100248.00
2022-10-05T02:42:02.192Z,100254.37
2022-10-05T02:45:07.413Z,100261.03
2022-10-05T02:48:12.460Z,100263.81
2022-10-05T02:51:24.722Z,100268.78
2022-10-05T02:54:26.907Z,100268.22
2022-10-05T02:57:36.492Z,100270.50
2022-10-05T03:01:00.742Z,100271.03
2022-10-05T03:04:15.333Z,100278.09
2022-10-05T03:07:33.594Z,100270.50
2022-10-05T03:10:39.986Z,100271.56
2022-10-05T03:14:05.160Z,100275.78
2022-10-05T03:17:15.050Z,100269.59
2022-10-05T03:20:23.478Z,100258.97
2022-10-05T03:23:34.618Z,100261.13
2022-10-05T03:26:59.607Z,100252.91
2022-10-05T03:30:17.797Z,100249.44
2022-10-05T03:33:25.666Z,100251.03
2022-10-05T03:36:52.226Z,100250.56
2022-10-05T03:40:07.421Z,100251.16
2022-10-05T03:43:46.939Z,100269.69
2022-10-05T03:47:09.006Z,100266.63
2022-10-05T03:50:32.641Z,100271.47
2022-10-05T03:53:56.916Z,100273.16
2022-10-05T03:57:07.145Z,100281.34
2022-10-05T04:00:16.190Z,100280.38
2022-10-05T04:03:35.816Z,100277.44
2022-10-05T04:06:46.785Z,100283.25
2022-10-05T04:09:51.298Z,100282.56
2022-10-05T04:13:18.764Z,100286.19
2022-10-05T04:16:31.633Z,100282.03
2022-10-05T04:19:39.671Z,100277.00
2022-10-05T04:23:11.554Z,100283.69
2022-10-05T04:26:18.977Z,100277.31
2022-10-05T04:29:38.459Z,100283.53
2022-10-05T04:32:57.524Z,100278.13
2022-10-05T04:36:08.947Z,100275.94
2022-10-05T04:39:24.503Z,100275.38
2022-10-05T04:43:09.981Z,100285.06
2022-10-05T04:46:36.823Z,100283.84
2022-10-05T04:49:57.880Z,100276.06
2022-10-05T04:53:25.786Z,100275.34
2022-10-05T04:56:38.949Z,100267.41
2022-10-05T04:59:53.233Z,100272.78
2022-10-05T05:03:13.469Z,100271.94
2022-10-05T05:06:33.170Z,100272.62
2022-10-05T05:10:04.513Z,100271.50
2022-10-05T05:13:30.553Z,100266.63
2022-10-05T05:16:34.178Z,100271.06
2022-10-05T05:19:50.724Z,100278.13
2022-10-05T05:23:47.298Z,100276.16
2022-10-05T05:27:17.012Z,100285.81
2022-10-05T05:30:21.418Z,100281.13
2022-10-05T05:33:52.608Z,100285.75
2022-10-05T05:37:13.319Z,100284.91
2022-10-05T05:40:39.461Z,100296.34
2022-10-05T05:43:44.626Z,100304.41
2022-10-05T05:47:03.596Z,100307.12
2022-10-05T05:50:10.393Z,100311.03
2022-10-05T05:53:20.914Z,100321.03
2022-10-05T05:56:46.209Z,100314.59
2022-10-05T06:00:07.628Z,100331.31
2022-10-05T06:03:15.923Z,100335.09
2022-10-05T06:06:18.783Z,100340.00
2022-10-05T06:09:22.727Z,100351.72
2022-10-05T06:12:30.241Z,100357.72
2022-10-05T06:15:40.515Z,100359.81
2022-10-05T06:18:46.944Z,100369.69
2022-10-05T06:22:12.851Z,100371.03
2022-10-05T06:25:30.025Z,100375.38
2022-10-05T06:28:32.564Z,100387.91
2022-10-05T06:31:49.396Z,100392.34
2022-10-05T06:35:01.796Z,100394.53
2022-10-05T06:38:21.066Z,100389.25
2022-10-05T06:41:28.948Z,100380.66
2022-10-05T06:44:43.381Z,100384.06
2022-10-05T06:47:51.542Z,100388.78
2022-10-05T06:51:11.834Z,100391.19
2022-10-05T06:54:38.044Z,100398.84
2022-10-05T06:57:58.856Z,100400.88
2022-10-05T07:01:17.760Z,100411.84
2022-10-05T07:05:09.549Z,100424.75
2022-10-05T07:08:23.338Z,100424.81
2022-10-05T07:11:40.800Z,100419.53
2022-10-05T07:14:51.789Z,100407.09
2022-10-05T07:18:06.068Z,100414.66
2022-10-05T07:21:40.005Z,100419.22
2022-10-05T07:24:55.230Z,100429.31
2022-10-05T07:28:06.494Z,100433.75
2022-10-05T07:31:37.839Z,100433.37
2022-10-05T07:34:59.116Z,100432.56
2022-10-05T07:38:08.675Z,100434.84
2022-10-05T07:41:20.249Z,100434.94
2022-10-05T07:44:29.926Z,100425.78
2022-10-05T07:47:52.186Z,100419.81
2022-10-05T07:51:00.178Z,100416.94
2022-10-05T07:54:02.263Z,100426.06
2022-10-05T07:57:15.512Z,100426.44
2022-10-05T08:00:22.398Z,100428.47
2022-10-05T08:03:39.846Z,100439.25
2022-10-05T08:07:09.939Z,100426.16
2022-10-05T08:10:45.993Z,100409.87
2022-10-05T08:14:17.212Z,100405.00
2022-10-05T08:17:37.673Z,100409.25
2022-10-05T08:20:44.916Z,100390.25
2022-10-05T08:23:58.958Z,100391.31
2022-10-05T08:27:10.202Z,100387.16
2022-10-05T08:30:14.060Z,100391.91
2022-10-05T08:33:17.678Z,100402.16
2022-10-05T08:36:27.532Z,100402.72
2022-10-05T08:39:34.241Z,100405.78
2022-10-05T08:43:01.770Z,100405.97
2022-10-05T08:46:41.648Z,100405.34
2022-10-05T08:50:16.043Z,100411.59
2022-10-05T08:53:36.646Z,100416.53
2022-10-05T08:56:48.567Z,100413.41
2022-10-05T08:59:58.175Z,100410.72
2022-10-05T09:03:18.906Z,100421.78
2022-10-05T09:06:42.499Z,100428.38
2022-10-05T09:10:01.421Z,100430.22
2022-10-05T09:13:17.353Z,100430.53
2022-10-05T09:16:44.534Z,100425.12
2022-10-05T09:20:08.337Z,100431.13
2022-10-05T09:23:16.540Z,100432.38
2022-10-05T09:26:40.416Z,100428.22
2022-10-05T09:30:10.600Z,100425.72
2022-10-05T09:33:13.654Z,100428.22
2022-10-05T09:36:34.391Z,100432.25
2022-10-05T09:40:03.294Z,100432.63
2022-10-05T09:43:09.028Z,100427.06
2022-10-05T09:46:20.370Z,100415.78
2022-10-05T09:49:28.693Z,100413.09
2022-10-05T09:52:44.320Z,100423.16
2022-10-05T09:56:44.149Z,100417.47
2022-10-05T10:03:18.687Z,100417.78
2022-10-05T10:06:29.827Z,100419.25
2022-10-05T10:09:43.397Z,100421.13
2022-10-05T10:13:25.002Z,100428.06
2022-10-05T10:16:53.759Z,100422.69
2022-10-05T10:20:20.447Z,100428.16
2022-10-05T10:23:34.426Z,100432.47
2022-10-05T10:26:56.983Z,100437.34
2022-10-05T10:30:19.056Z,100426.81
2022-10-05T10:33:36.792Z,100420.09
2022-10-05T10:37:12.574Z,100429.91
2022-10-05T10:40:26.079Z,100427.13
2022-10-05T10:43:50.600Z,100422.31
2022-10-05T10:47:30.418Z,100432.12
2022-10-05T10:50:48.784Z,100433.41
2022-10-05T10:54:02.559Z,100428.69
2022-10-05T10:57:10.711Z,100419.22
2022-10-05T11:00:44.202Z,100427.53
2022-10-05T11:04:42.140Z,100423.28
2022-10-05T11:08:15.767Z,100426.06
2022-10-05T11:11:30.950Z,100423.13
2022-10-05T11:14:46.426Z,100422.69
2022-10-05T11:17:56.498Z,100416.28
2022-10-05T11:21:20.897Z,100416.31
2022-10-05T11:24:58.871Z,100414.06
2022-10-05T11:28:38.411Z,100415.00
2022-10-05T11:32:08.071Z,100411.06
2022-10-05T11:35:55.114Z,100405.47
2022-10-05T11:39:08.929Z,100395.91
2022-10-05T11:42:11.035Z,100399.75
2022-10-05T11:45:22.354Z,100397.69
2022-10-05T11:48:33.273Z,100398.81
2022-10-05T11:51:51.224Z,100400.06
2022-10-05T11:55:11.349Z,100382.59
2022-10-05T11:58:24.706Z,100386.63
2022-10-05T12:01:45.004Z,100378.53
2022-10-05T12:05:15.985Z,100373.59
2022-10-05T12:08:44.337Z,100376.66
2022-10-05T12:12:15.637Z,100382.84
2022-10-05T12:15:39.545Z,100382.84
2022-10-05T12:18:47.222Z,100370.81
2022-10-05T12:21:52.572Z,100381.88
2022-10-05T12:25:15.126Z,100373.66
2022-10-05T12:28:23.890Z,100361.19
2022-10-05T12:31:52.476Z,100361.69
2022-10-05T12:35:48.047Z,100360.13
2022-10-05T12:39:13.446Z,100354.88
2022-10-05T12:42:24.693Z,100349.59
2022-10-05T12:45:31.094Z,100339.59
2022-10-05T12:48:56.272Z,100337.69
2022-10-05T12:52:00.757Z,100340.03
2022-10-05T12:55:13.520Z,100340.56
2022-10-05T12:58:28.320Z,100337.22
2022-10-05T13:01:39.181Z,100339.53
2022-10-05T13:04:44.331Z,100343.50
2022-10-05T13:08:08.531Z,100345.06
2022-10-05T13:11:36.383Z,100349.31
2022-10-05T13:15:22.536Z,100352.75
2022-10-05T13:18:49.861Z,100342.16
2022-10-05T13:21:55.208Z,100332.50
2022-10-05T13:25:32.948Z,100332.81
2022-10-05T13:28:44.654Z,100333.41
2022-10-05T13:31:51.221Z,100337.91
2022-10-05T13:35:17.321Z,100329.75
2022-10-05T13:38:22.192Z,100322.59
2022-10-05T13:41:46.093Z,100324.28
2022-10-05T13:44:51.493Z,100326.31
2022-10-05T13:48:15.626Z,100330.03
2022-10-05T13:51:35.078Z,100321.25
2022-10-05T13:54:37.659Z,100325.19
2022-10-05T13:57:51.641Z,100329.53
2022-10-05T14:00:59.844Z,100339.19
2022-10-05T14:04:07.027Z,100332.44
2022-10-05T14:07:30.167Z,100330.34
2022-10-05T14:10:42.916Z,100329.75
2022-10-05T14:13:46.870Z,100339.16
2022-10-05T14:17:00.321Z,100335.72
2022-10-05T14:20:20.301Z,100339.91
2022-10-05T14:23:25.647Z,100339.03
2022-10-05T14:26:35.908Z,100329.56
2022-10-05T14:29:38.819Z,100331.75
2022-10-05T14:32:47.284Z,100328.13
2022-10-05T14:35:54.716Z,100334.84
2022-10-05T14:39:00.558Z,100342.59
2022-10-05T14:42:13.901Z,100339.13
2022-10-05T14:45:18.948Z,100340.12
2022-10-05T14:48:21.950Z,100341.56
2022-10-05T14:51:31.955Z,100326.50
2022-10-05T14:54:47.945Z,100313.28
2022-10-05T14:58:23.803Z,100320.25
2022-10-05T15:01:39.263Z,100312.56
2022-10-05T15:04:46.305Z,100303.03
2022-10-05T15:07:49.585Z,100309.72
2022-10-05T15:11:06.474Z,100304.22
2022-10-05T15:14:22.084Z,100306.66
2022-10-05T15:17:28.422Z,100310.59
2022-10-05T15:20:49.339Z,100311.31
2022-10-05T15:24:05.269Z,100304.13
2022-10-05T15:27:15.952Z,100302.84
2022-10-05T15:30:18.591Z,100296.91
2022-10-05T15:33:43.214Z,100301.03
2022-10-05T15:36:50.213Z,100290.75
2022-10-05T15:39:55.718Z,100286.44
2022-10-05T15:43:03.944Z,100284.06
2022-10-05T15:46:17.375Z,100283.22
2022-10-05T15:49:37.734Z,100288.78
2022-10-05T15:52:58.945Z,100287.56
2022-10-05T15:56:27.024Z,100286.34
2022-10-05T15:59:41.400Z,100296.69
2022-10-05T16:03:19.663Z,100294.25
2022-10-05T16:06:48.729Z,100294.47
2022-10-05T16:10:03.921Z,100290.38
2022-10-05T16:13:27.073Z,100298.81
2022-10-05T16:16:37.486Z,100295.34
2022-10-05T16:19:48.046Z,100294.94
2022-10-05T16:22:59.754Z,100301.94
2022-10-05T16:26:11.613Z,100298.03
2022-10-05T16:29:33.010Z,100301.75
2022-10-05T16:32:39.351Z,100301.34
2022-10-05T16:36:04.341Z,100290.44
2022-10-05T16:39:26.665Z,100295.38
2022-10-05T16:43:13.266Z,100298.84
2022-10-05T16:46:30.951Z,100307.87
2022-10-05T16:49:39.092Z,100313.03
2022-10-05T16:52:42.927Z,100330.47
2022-10-05T16:55:48.385Z,100333.94
2022-10-05T16:58:53.328Z,100330.25
2022-10-05T17:02:29.422Z,100338.19
2022-10-05T17:05:34.886Z,100338.81
2022-10-05T17:09:01.533Z,100337.16
2022-10-05T17:12:38.278Z,100337.56
2022-10-05T17:16:00.810Z,100335.44
2022-10-05T17:19:21.100Z,100335.91
2022-10-05T17:22:46.572Z,100348.97
2022-10-05T17:26:14.900Z,100338.28
2022-10-05T17:29:24.851Z,100345.50
2022-10-05T17:32:36.255Z,100343.38
2022-10-05T17:35:43.606Z,100339.91
2022-10-05T17:38:53.085Z,100338.87
2022-10-05T17:42:27.725Z,100345.44
2022-10-05T17:45:29.990Z,100346.59
2022-10-05T17:48:50.365Z,100347.28
2022-10-05T17:52:11.654Z,100342.63
2022-10-05T17:55:28.119Z,100347.28
2022-10-05T17:58:30.231Z,100347.16
2022-10-05T18:01:34.901Z,100350.38
2022-10-05T18:04:42.232Z,100356.69
2022-10-05T18:08:13.154Z,100352.03
2022-10-05T18:11:36.674Z,100351.91
2022-10-05T18:14:55.113Z,100339.88
2022-10-05T18:18:33.259Z,100336.03
2022-10-05T18:21:38.164Z,100346.06
2022-10-05T18:24:53.086Z,100349.34
2022-10-05T18:28:22.778Z,100345.19
2022-10-05T18:31:28.411Z,100346.06
2022-10-05T18:35:02.030Z,100343.97
2022-10-05T18:38:31.307Z,100341.75
2022-10-05T18:42:02.855Z,100342.13
2022-10-05T18:45:21.424Z,100346.75
2022-10-05T18:48:47.900Z,100344.66
2022-10-05T18:51:57.659Z,100340.53
2022-10-05T18:55:10.664Z,100341.38
2022-10-05T18:58:25.989Z,100347.44
2022-10-05T19:02:02.728Z,100347.19
2022-10-05T19:05:46.849Z,100346.84
2022-10-05T19:09:20.562Z,100341.06
2022-10-05T19:12:35.956Z,100344.50
2022-10-05T19:15:44.374Z,100340.72
2022-10-05T19:19:07.361Z,100340.66
2022-10-05T19:22:37.483Z,100342.22
2022-10-05T19:25:46.220Z,100351.12
2022-10-05T19:29:07.904Z,100356.09
2022-10-05T19:32:46.833Z,100360.31
2022-10-05T19:35:58.254Z,100359.59
2022-10-05T19:39:10.491Z,100362.97
2022-10-05T19:42:25.087Z,100360.22
2022-10-05T19:45:33.622Z,100363.16
2022-10-05T19:48:44.518Z,100357.09
2022-10-05T19:51:49.294Z,100359.19
2022-10-05T19:55:24.203Z,100368.87
2022-10-05T19:58:28.763Z,100369.16
2022-10-05T20:01:36.497Z,100380.69
2022-10-05T20:04:44.642Z,100377.38
2022-10-05T20:07:46.924Z,100372.56
2022-10-05T20:11:11.246Z,100385.66
2022-10-05T20:14:16.798Z,100378.59
2022-10-05T20:17:47.690Z,100371.94
2022-10-05T20:20:50.219Z,100385.91
2022-10-05T20:24:07.796Z,100384.53
2022-10-05T20:27:46.592Z,100383.00
2022-10-05T20:30:48.735Z,100388.12
2022-10-05T20:33:50.914Z,100390.78
2022-10-05T20:36:53.088Z,100385.28
2022-10-05T20:39:55.253Z,100390.84
2022-10-05T20:42:58.431Z,100393.34
2022-10-05T20:46:00.596Z,100391.97
2022-10-05T20:49:03.215Z,100397.28
2022-10-05T20:52:06.331Z,100392.50
2022-10-05T20:55:11.319Z,100385.91
2022-10-05T20:58:13.502Z,100391.53
2022-10-05T21:01:19.597Z,100391.72
2022-10-05T21:04:24.044Z,100390.22
2022-10-05T21:07:26.312Z,100392.31
2022-10-05T21:10:28.439Z,100388.47
2022-10-05T21:13:30.579Z,100389.56
2022-10-05T21:16:34.074Z,100394.03
2022-10-05T21:19:40.417Z,100390.31
2022-10-05T21:22:42.740Z,100386.47
2022-10-05T21:25:45.338Z,100393.31
2022-10-05T21:28:47.532Z,100385.00
2022-10-05T21:31:49.812Z,100384.16
2022-10-05T21:34:52.067Z,100387.19
2022-10-05T21:37:54.250Z,100385.16
2022-10-05T21:40:56.502Z,100381.69
2022-10-05T21:43:58.645Z,100377.72
2022-10-05T21:47:01.207Z,100384.72
2022-10-05T21:50:05.229Z,100375.09
2022-10-05T21:53:09.316Z,100382.91
2022-10-05T21:56:14.825Z,100380.25
2022-10-05T21:59:19.262Z,100383.06
2022-10-05T22:02:21.431Z,100376.06
2022-10-05T22:05:23.618Z,100385.03
2022-10-05T22:08:28.728Z,100380.09
2022-10-05T22:11:31.668Z,100370.13
2022-10-05T22:14:33.818Z,100369.63
2022-10-05T22:17:36.192Z,100372.66
2022-10-05T22:20:38.457Z,100364.62
2022-10-05T22:23:42.312Z,100370.25
2022-10-05T22:26:46.788Z,100370.41
2022-10-05T22:29:49.247Z,100367.28
2022-10-05T22:32:51.526Z,100363.63
2022-10-05T22:35:54.161Z,100369.63
2022-10-05T22:38:56.442Z,100362.78
2022-10-05T22:41:58.787Z,100352.81
2022-10-05T22:45:01.007Z,100353.00
2022-10-05T22:48:03.808Z,100349.19
2022-10-05T22:51:06.650Z,100345.53
2022-10-05T22:58:31.566Z,100348.53
2022-10-05T23:01:33.962Z,100344.72
2022-10-05T23:04:36.418Z,100343.38
2022-10-05T23:07:41.693Z,100335.75
2022-10-05T23:10:43.965Z,100339.88
2022-10-05T23:13:46.252Z,100340.25
2022-10-05T23:16:48.569Z,100339.88
2022-10-05T23:19:50.874Z,100343.84
2022-10-05T23:22:53.064Z,100335.03
2022-10-05T23:26:01.927Z,100336.91
2022-10-05T23:29:04.216Z,100333.09
2022-10-05T23:32:06.443Z,100329.81
2022-10-05T23:35:10.472Z,100335.75
2022-10-05T23:38:12.644Z,100325.66
2022-10-05T23:41:16.010Z,100321.72
2022-10-05T23:44:18.425Z,100331.16
2022-10-05T23:47:20.580Z,100321.81
2022-10-05T23:50:25.074Z,100320.81
2022-10-05T23:53:27.211Z,100308.56
2022-10-05T23:56:29.377Z,100311.91
2022-10-05T23:59:31.554Z,100316.47
